x

Buoy F01 - West Penobscot Bay (44033) Wave Buoy

12:04 - Sat 27th Dec 2014 All times are EST. -5 hours from GMT.

  • Sig Wave height 1.0ft
  • Peak Period 5s
  • Wind
    13mph, 18mph gusts
  • Sea Temp 44°f
  • Aire Temp 45°f
  • Sea Pressure 1018.4mb
  • Buoy F01 - West Penobscot Bay
  • Buoy F01 - West Penobscot Bay

More Historic Weather Station data

Upgrade to MSW Pro to gain access to the past 30 days of data for over 8000 Wavebouys and Weather Stations around the globe.

Join Pro

Comparision Forecast

View Surf forecast
   
sáb 12/27 12:04 1ft 5s 13 18 mph 1018.4mb 44f 45f
11:04 1.3ft 8s 11 13 mph 1019.4mb 44f 44f
10:04 1ft 5s 11 16 mph 1020.2mb 44f 42f
9:04 1.3ft 5s 11 13 mph 1019.9mb 44f 40f
8:04 1.3ft 8s 13 16 mph 1019.1mb 44f 40f
7:04 1.3ft 5s 11 13 mph 1018.8mb 44f 37f
6:04 1.3ft 6s 9 11 mph 1018.3mb 44f 39f
5:04 1.3ft 6s 11 13 mph 1017.3mb 44f 39f
4:04 1.3ft 5s 9 11 mph 1016.8mb 44f 39f
3:04 1.3ft 5s 9
mph
1017.2mb 44f 38f
2:04 1.6ft 6s 9
mph
1017mb 44f 40f
1:04 2ft 5s 9 11 mph 1016.5mb 44f 41f
12:04 1.6ft 8s 13 18 mph 1016.7mb 44f 42f
vie 12/26 11:04 1.6ft 5s 11 13 mph 1017.2mb 44f 42f
10:04 1.6ft 8s 11
mph
1017.6mb 44f 41f
9:04 1.6ft 11s 9 11 mph 1017.5mb 44f 42f
8:04 1.6ft 5s 9 11 mph 1017.2mb 44f 43f
7:04 1.3ft 5s 11 13 mph 1017mb 44f 44f
6:04 2ft 6s 7 9 mph 1016.6mb 44f 44f
5:04 1.6ft 6s 7 9 mph 1016.5mb 44f 45f
4:04 2ft 11s 9 11 mph 1016mb 44f 46f
3:04 1ft 2s 13 18 mph 1015.3mb 44f 47f
2:04 1.3ft 3s 16 22 mph 1014.9mb 44f 47f
1:04 1.6ft 6s 18 22 mph 1014.5mb 44f 47f
12:04 1.6ft 5s 20 22 mph 1014.6mb 44f 46f
11:04 2ft 8s 18 22 mph 1015.4mb 44f 45f
10:04 2.5ft 8s 18 22 mph 1015.8mb 44f 44f
9:04 1.3ft 2s 18 20 mph 1015.5mb 44f 43f
8:04 2.5ft 8s 18 20 mph 1014.5mb 44f 43f
7:04 2ft 6s 18 20 mph 1013.5mb 44f 43f
6:04 1ft 3s 16 20 mph 1013.2mb 44f 43f
5:04 1.6ft 5s 18 22 mph 1011.9mb 44f 43f
4:04 2.5ft 8s 18 22 mph 1010.9mb 44f 43f
3:04 3.5ft 8s 16 18 mph 1011mb 44f 42f
2:04 3ft 8s 16 20 mph 1010.6mb 44f 43f
1:04 3.5ft 8s 9 11 mph 1009.5mb 44f 43f
12:04 3ft 8s 16 20 mph 1008.1mb 44f 44f
jue 12/25 11:04 3ft 8s 18 22 mph 1007.3mb 44f 44f
10:04 2.5ft 6s 16 20 mph 1006.7mb 44f 44f
9:04 3ft 8s 13 16 mph 1005.6mb 44f 45f
8:04 3ft 6s 13 16 mph 1004.7mb 44f 45f
7:04 3ft 6s 13 16 mph 1003.4mb 44f 46f
6:04 3ft 6s 16 18 mph 1001.8mb 44f 46f
5:04 3.5ft 8s 9 11 mph 1001.1mb 44f 46f
4:04 3.5ft 8s 9 11 mph 999.5mb 44f 47f
3:04 3.5ft 6s 13 18 mph 998mb 44f 49f
2:04 4.5ft 8s 16 20 mph 996.5mb 44f 49f
1:04 4.5ft 8s 16 22 mph 995.3mb 44f 48f
12:04 5ft 8s 18 27 mph 995mb 44f 47f
11:04 5ft 6s 20 25 mph 994.8mb 44f 48f
10:04 6ft 8s 25 34 mph 995.1mb 44f 50f
9:04 4.5ft 8s 18 27 mph 995.5mb 44f 49f
8:04 5ft 8s 18 20 mph 996.4mb 44f 49f
7:04 4.5ft 8s 11 13 mph 995.5mb 43f 48f
6:04 4.5ft 6s 11 13 mph 996.8mb 43f 47f
5:04 4.5ft 8s 11 13 mph 997mb 42f 48f
4:04 4.5ft 6s 11
mph
998mb 43f 47f
3:04 4.5ft 6s 13 16 mph 998.1mb 43f 50f
2:04 4.5ft 5s 13 20 mph 998.4mb 43f 50f
1:04 5ft 5s 20 25 mph 998.6mb 43f 51f
12:04 4ft 5s 20 22 mph 999.8mb 43f 50f
mié 12/24 11:04 2.5ft 8s 9 11 mph 1001.6mb 43f 48f
10:04 2.5ft 6s 4 7 mph 1003.3mb 42f 48f
9:04 2.5ft 8s 2 4 mph 1005.2mb 42f 47f
8:04 3ft 8s 4
mph
1006.9mb 42f 46f
7:04 3ft 8s 9 11 mph 1008.3mb 42f 46f
6:04 3ft 8s 9 11 mph 1009.2mb 42f 46f
5:04 3ft 8s 7
mph
1010.4mb 42f 44f
4:04 3.5ft 8s 7
mph
1011.6mb 42f 44f
3:04 3ft 8s 7 9 mph 1012.7mb 42f 44f
2:04 3.5ft 8s 7 9 mph 1013mb 42f 44f
1:04 3.5ft 6s 9
mph
1014.2mb 41f 43f
12:04 3ft 8s 9
mph
1015.7mb 41f 43f
11:04 3ft 8s 11 16 mph 1016.4mb 42f 43f
10:04 3ft 8s 11 16 mph 1018.1mb 42f 43f
9:04 3.5ft 8s 11 16 mph 1019mb 42f 42f
8:04 3.5ft 6s 11 13 mph 1020mb 42f 42f
7:04 4ft 8s 11 13 mph 1021mb 42f 40f
6:04 4ft 8s 11 13 mph 1021.1mb 42f 40f
5:04 3.5ft 8s 11 13 mph 1020.7mb 42f 40f
4:04 4ft 8s 16 18 mph 1020.5mb 43f 40f
3:04 3.5ft 8s 16 18 mph 1021.9mb 43f 40f
2:04 3.5ft 8s 13 16 mph 1022.2mb 44f 40f
1:04 4ft 8s 13 16 mph 1022.3mb 43f 40f
12:04 3.5ft 8s 13 16 mph 1022.2mb 43f 40f
mar 12/23 11:04 3.5ft 8s 13 18 mph 1022.7mb 43f 40f
10:04 4ft 8s 13 16 mph 1022.9mb 43f 40f
9:04 4ft 8s 13 16 mph 1024mb 43f 40f
7:04 4.5ft 6s 16 18 mph 1024mb 43f 41f